Terminal Aerodrome Forecast
Issued by NWS Wilmington, OH

Current Version | Previous Version | Graphics & Text | Print | Product List | Glossary On
Versions: 1 2 3 4 5 6 7 8 9 10 11 12 13 14 15 16 17 18 19
000
FTUS41 KILN 132100 AAA
TAFILN
TAF AMD
KILN 132109Z 1321/1418 35008KT P6SM SCT050
     FM132300 02004KT P6SM FEW050
     FM140100 04004KT P6SM SKC
     FM141000 07004KT P6SM SCT250
     FM141500 VRB04KT P6SM FEW040 SCT250=

USA.gov is the U.S. government's official web portal to all federal, state and local government web resources and services.